DEFOG EDXW-EDXW
Flight info
| Callsign | DEFOG |
|---|---|
| Flight time | N/A |
| Altitude | 2600 |
| Route | |
| Aircraft |
Departure
| Time | 2026-05-05 13:39 |
|---|---|
| Airport | Westerland Sylt Airport (EDXW) |
Arrival
| Time | N/A |
|---|---|
| Airport | Westerland Sylt Airport (EDXW) |
| Time | Latitude | Longitude | Altitude | Speed | Heading |
|---|---|---|---|---|---|
| 2026-05-05 13:34 | 54.91100 | 8.32726 | 33 ft | 0 kts | 177° |
| 2026-05-05 13:34 | 54.91087 | 8.32749 | 34 ft | 10 kts | 110° |
| 2026-05-05 13:35 | 54.91066 | 8.32855 | 35 ft | 8 kts | 110° |
| 2026-05-05 13:35 | 54.90992 | 8.33044 | 33 ft | 20 kts | 137° |
| 2026-05-05 13:35 | 54.90865 | 8.33183 | 31 ft | 23 kts | 159° |
| 2026-05-05 13:35 | 54.90703 | 8.33226 | 29 ft | 24 kts | 176° |
| 2026-05-05 13:36 | 54.90550 | 8.33252 | 25 ft | 17 kts | 172° |
| 2026-05-05 13:36 | 54.90426 | 8.33330 | 24 ft | 21 kts | 146° |
| 2026-05-05 13:36 | 54.90318 | 8.33505 | 23 ft | 21 kts | 127° |
| 2026-05-05 13:36 | 54.90261 | 8.33739 | 22 ft | 21 kts | 100° |
| 2026-05-05 13:37 | 54.90239 | 8.33995 | 22 ft | 21 kts | 96° |
| 2026-05-05 13:37 | 54.90247 | 8.34249 | 23 ft | 21 kts | 80° |
| 2026-05-05 13:37 | 54.90272 | 8.34494 | 26 ft | 20 kts | 78° |
| 2026-05-05 13:37 | 54.90296 | 8.34732 | 29 ft | 20 kts | 80° |
| 2026-05-05 13:38 | 54.90320 | 8.34965 | 33 ft | 15 kts | 79° |
| 2026-05-05 13:38 | 54.90336 | 8.35064 | 34 ft | 3 kts | 58° |
| 2026-05-05 13:38 | 54.90338 | 8.35069 | 34 ft | 0 kts | 57° |
| 2026-05-05 13:38 | 54.90358 | 8.35120 | 35 ft | 14 kts | 53° |
| 2026-05-05 13:39 | 54.90481 | 8.35088 | 35 ft | 49 kts | 322° |
| 2026-05-05 13:39 | 54.90889 | 8.34582 | 214 ft | 85 kts | 324° |
| 2026-05-05 13:39 | 54.91392 | 8.33957 | 482 ft | 89 kts | 328° |
| 2026-05-05 13:39 | 54.92022 | 8.33855 | 733 ft | 94 kts | 12° |
| 2026-05-05 13:40 | 54.92614 | 8.34461 | 852 ft | 104 kts | 34° |
| 2026-05-05 13:40 | 54.93218 | 8.34504 | 1043 ft | 92 kts | 298° |
| 2026-05-05 13:40 | 54.92888 | 8.33850 | 1085 ft | 97 kts | 171° |
| 2026-05-05 13:40 | 54.92203 | 8.34130 | 1101 ft | 106 kts | 168° |
| 2026-05-05 13:41 | 54.91487 | 8.34415 | 1079 ft | 108 kts | 169° |
| 2026-05-05 13:41 | 54.90925 | 8.33948 | 1250 ft | 97 kts | 256° |
| 2026-05-05 13:41 | 54.91121 | 8.32912 | 1368 ft | 91 kts | 308° |
| 2026-05-05 13:41 | 54.91526 | 8.32036 | 1426 ft | 96 kts | 302° |
| 2026-05-05 13:42 | 54.91575 | 8.30855 | 1454 ft | 102 kts | 251° |
| 2026-05-05 13:42 | 54.91187 | 8.29807 | 1510 ft | 105 kts | 232° |
| 2026-05-05 13:42 | 54.90685 | 8.28861 | 1522 ft | 106 kts | 214° |
| 2026-05-05 13:42 | 54.89957 | 8.28491 | 1448 ft | 112 kts | 188° |
| 2026-05-05 13:43 | 54.89182 | 8.28308 | 1344 ft | 115 kts | 188° |
| 2026-05-05 13:43 | 54.88437 | 8.28218 | 1476 ft | 106 kts | 181° |
| 2026-05-05 13:43 | 54.87671 | 8.28164 | 1416 ft | 110 kts | 185° |
| 2026-05-05 13:43 | 54.86911 | 8.28037 | 1408 ft | 105 kts | 210° |
| 2026-05-05 13:44 | 54.87021 | 8.27050 | 1484 ft | 103 kts | 327° |
| 2026-05-05 13:44 | 54.87316 | 8.26705 | 1492 ft | 106 kts | 323° |